Time;durP1;ratioP1;P1;durP2;ratioP2;P2;SDS_P1;SDS_P2;PMS_P1;PMS_P2;Temp;Humidity;BMP_temperature;BMP_pressure;BME280_temperature;BME280_humidity;BME280_pressure;Samples;Min_cycle;Max_cycle;Signal;HPM_P1;HPM_P2
2023/03/05 00:01:23;;;;;;;;;;;3.60;1.00;;;;;;4987322;28;19924;-80
2023/03/05 00:03:53;;;;;;;;;;;3.60;1.00;;;;;;4977101;28;20830;-80
2023/03/05 00:06:20;;;;;;;;;;;3.60;1.00;;;;;;4984943;28;20020;-80
2023/03/05 00:08:47;;;;;;;;;;;3.60;1.00;;;;;;4978323;28;19910;-81
2023/03/05 00:11:13;;;;;;;;;;;3.60;1.00;;;;;;4976238;28;19921;-80
2023/03/05 00:13:39;;;;;;;;;;;3.40;1.00;;;;;;4985721;28;19913;-80
2023/03/05 00:16:07;;;;;;;;;;;3.50;1.00;;;;;;4997785;28;19918;-80
2023/03/05 00:18:33;;;;;;;;;;;3.50;1.00;;;;;;4986136;28;19921;-80
2023/03/05 00:21:00;;;;;;;;;;;3.60;1.00;;;;;;4987806;28;19914;-80
2023/03/05 00:23:26;;;;;;;;;;;3.50;1.00;;;;;;4985232;28;19922;-80
2023/03/05 00:25:52;;;;;;;;;;;3.50;1.00;;;;;;4982735;28;20319;-80
2023/03/05 00:28:18;;;;;;;;;;;3.50;1.00;;;;;;4961787;28;19940;-79
2023/03/05 00:30:47;;;;;;;;;;;3.50;1.00;;;;;;4973667;28;19922;-79
2023/03/05 00:33:13;;;;;;;;;;;3.50;1.00;;;;;;4983585;28;19921;-79
2023/03/05 00:35:40;;;;;;;;;;;3.50;1.00;;;;;;4979232;28;19921;-79
2023/03/05 00:38:08;;;;;;;;;;;3.50;1.00;;;;;;4993151;28;19913;-79
2023/03/05 00:40:36;;;;;;;;;;;3.50;1.00;;;;;;4957279;28;20390;-80
2023/03/05 00:43:07;;;;;;;;;;;3.50;1.00;;;;;;4949547;28;20022;-79
2023/03/05 00:45:37;;;;;;;;;;;3.40;1.00;;;;;;4940012;29;19930;-80
2023/03/05 00:48:06;;;;;;;;;;;3.40;1.00;;;;;;4955809;28;19936;-80
2023/03/05 00:50:32;;;;;;;;;;;3.40;1.00;;;;;;4952770;29;19914;-80
2023/03/05 00:53:01;;;;;;;;;;;3.40;1.00;;;;;;4963603;28;19925;-80
2023/03/05 00:55:31;;;;;;;;;;;3.40;1.00;;;;;;4954133;28;19914;-80
2023/03/05 00:57:57;;;;;;;;;;;3.40;1.00;;;;;;4967571;28;20253;-79
2023/03/05 01:00:25;;;;;;;;;;;3.30;1.00;;;;;;4956618;28;20393;-79
2023/03/05 01:02:52;;;;;;;;;;;3.30;1.00;;;;;;4935678;28;19922;-79
2023/03/05 01:05:20;;;;;;;;;;;3.30;1.00;;;;;;4947849;29;20352;-79
2023/03/05 01:07:47;;;;;;;;;;;3.30;1.00;;;;;;4942871;29;20042;-80
2023/03/05 01:10:15;;;;;;;;;;;3.30;1.00;;;;;;4963191;28;19914;-79
2023/03/05 01:12:44;;;;;;;;;;;3.30;1.00;;;;;;4958466;28;19914;-81
2023/03/05 01:15:12;;;;;;;;;;;3.30;1.00;;;;;;4949072;29;20369;-81
2023/03/05 01:17:38;;;;;;;;;;;3.30;1.00;;;;;;4964870;28;20371;-81
2023/03/05 01:20:04;;;;;;;;;;;3.30;1.00;;;;;;4989465;28;19914;-81
2023/03/05 01:22:30;;;;;;;;;;;3.20;1.00;;;;;;4993586;28;19966;-82
2023/03/05 01:24:56;;;;;;;;;;;3.20;1.00;;;;;;4982301;28;19918;-81
2023/03/05 01:27:23;;;;;;;;;;;3.20;1.00;;;;;;4988328;28;20278;-82
2023/03/05 01:29:49;;;;;;;;;;;3.30;1.00;;;;;;4976916;28;20363;-81
2023/03/05 01:32:15;;;;;;;;;;;3.20;1.00;;;;;;4984974;28;19918;-82
2023/03/05 01:34:41;;;;;;;;;;;3.20;1.00;;;;;;4977708;28;20371;-82
2023/03/05 01:37:07;;;;;;;;;;;3.20;1.00;;;;;;4995105;28;19921;-82
2023/03/05 01:39:35;;;;;;;;;;;3.10;1.00;;;;;;4996030;28;20367;-81
2023/03/05 01:42:01;;;;;;;;;;;3.10;1.00;;;;;;4985895;28;19933;-81
2023/03/05 01:44:28;;;;;;;;;;;3.10;1.00;;;;;;4989453;28;20248;-81
2023/03/05 01:46:54;;;;;;;;;;;3.10;1.00;;;;;;4999897;28;19933;-81
2023/03/05 01:49:31;;;;;;;;;;;3.10;1.00;;;;;;4980854;28;19914;-81
2023/03/05 01:52:00;;;;;;;;;;;3.10;1.00;;;;;;4982196;28;19914;-81
2023/03/05 01:54:38;;;;;;;;;;;3.10;1.00;;;;;;4995615;28;20331;-81
2023/03/05 01:57:07;;;;;;;;;;;3.10;1.00;;;;;;4980352;28;19913;-81
2023/03/05 01:59:35;;;;;;;;;;;3.00;1.00;;;;;;4989406;28;19985;-81
2023/03/05 02:02:02;;;;;;;;;;;3.10;1.00;;;;;;4966012;28;20240;-81
2023/03/05 02:04:33;;;;;;;;;;;3.10;1.00;;;;;;4980353;28;19920;-80
2023/03/05 02:07:01;;;;;;;;;;;3.00;1.00;;;;;;5002226;28;20216;-80
2023/03/05 02:09:27;;;;;;;;;;;3.00;1.00;;;;;;4996316;28;19920;-81
2023/03/05 02:11:54;;;;;;;;;;;3.00;1.00;;;;;;4990864;28;19913;-81
2023/03/05 02:14:20;;;;;;;;;;;2.90;1.00;;;;;;4981678;28;19918;-80
2023/03/05 02:16:46;;;;;;;;;;;2.90;1.00;;;;;;4994018;28;19914;-80
2023/03/05 02:19:12;;;;;;;;;;;2.90;1.00;;;;;;4992419;28;19914;-81
2023/03/05 02:21:43;;;;;;;;;;;2.90;1.00;;;;;;4988996;28;20273;-80
2023/03/05 02:24:13;;;;;;;;;;;2.90;1.00;;;;;;4999505;28;19918;-81
2023/03/05 02:26:41;;;;;;;;;;;2.80;1.00;;;;;;4986421;28;20282;-80
2023/03/05 02:29:09;;;;;;;;;;;2.80;1.00;;;;;;4967618;28;19914;-81
2023/03/05 02:31:37;;;;;;;;;;;2.80;1.00;;;;;;4994324;28;19918;-81
2023/03/05 02:34:05;;;;;;;;;;;2.80;1.00;;;;;;4988762;28;19914;-81
2023/03/05 02:36:31;;;;;;;;;;;2.70;1.00;;;;;;4993978;28;19917;-81
2023/03/05 02:38:58;;;;;;;;;;;2.70;1.00;;;;;;4994223;28;19913;-81
2023/03/05 02:41:25;;;;;;;;;;;2.70;1.00;;;;;;4979735;28;20244;-81
2023/03/05 02:43:51;;;;;;;;;;;2.70;1.00;;;;;;4981808;28;20294;-81
2023/03/05 02:46:17;;;;;;;;;;;2.70;1.00;;;;;;4976119;28;19925;-81
2023/03/05 02:48:43;;;;;;;;;;;2.70;1.00;;;;;;4996586;28;19914;-81
2023/03/05 02:51:12;;;;;;;;;;;2.70;1.00;;;;;;4980316;28;20355;-81
2023/03/05 02:53:38;;;;;;;;;;;2.70;1.00;;;;;;4996849;28;19913;-81
2023/03/05 02:56:04;;;;;;;;;;;2.60;1.00;;;;;;4989454;28;19914;-81
2023/03/05 02:58:32;;;;;;;;;;;2.60;1.00;;;;;;4994140;28;19917;-80
2023/03/05 03:00:59;;;;;;;;;;;2.60;1.00;;;;;;5003162;28;19918;-81
2023/03/05 03:03:25;;;;;;;;;;;2.60;1.00;;;;;;4984765;28;19922;-79
2023/03/05 03:05:51;;;;;;;;;;;2.60;1.00;;;;;;4975312;28;19936;-80
2023/03/05 03:08:17;;;;;;;;;;;2.60;1.00;;;;;;4965137;28;19913;-79
2023/03/05 03:10:43;;;;;;;;;;;2.70;1.00;;;;;;4969756;28;19917;-81
2023/03/05 03:13:09;;;;;;;;;;;2.70;1.00;;;;;;4979294;28;19914;-79
2023/03/05 03:15:36;;;;;;;;;;;2.70;1.00;;;;;;4985731;28;19917;-80
2023/03/05 03:18:02;;;;;;;;;;;2.70;1.00;;;;;;4994329;28;20370;-79
2023/03/05 03:20:29;;;;;;;;;;;2.70;1.00;;;;;;4978383;28;19981;-79
2023/03/05 03:22:56;;;;;;;;;;;2.60;1.00;;;;;;4996862;28;19918;-79
2023/03/05 03:25:22;;;;;;;;;;;2.60;1.00;;;;;;4972575;28;19913;-79
2023/03/05 03:27:52;;;;;;;;;;;2.60;1.00;;;;;;4983199;28;19914;-79
2023/03/05 03:30:25;;;;;;;;;;;2.70;1.00;;;;;;4985192;28;20386;-80
2023/03/05 03:32:51;;;;;;;;;;;2.70;1.00;;;;;;4983591;28;19921;-80
2023/03/05 03:35:18;;;;;;;;;;;2.70;1.00;;;;;;4991640;28;19914;-80
2023/03/05 03:37:44;;;;;;;;;;;2.80;1.00;;;;;;4979921;28;19921;-79
2023/03/05 03:40:11;;;;;;;;;;;2.70;1.00;;;;;;4981994;28;19914;-80
2023/03/05 03:42:38;;;;;;;;;;;2.60;1.00;;;;;;4991224;28;19924;-80
2023/03/05 03:45:04;;;;;;;;;;;2.60;1.00;;;;;;4988470;28;19997;-79
2023/03/05 03:47:30;;;;;;;;;;;2.70;1.00;;;;;;4995129;28;19918;-79
2023/03/05 03:49:57;;;;;;;;;;;2.70;1.00;;;;;;4993245;28;19917;-79
2023/03/05 03:52:23;;;;;;;;;;;2.80;1.00;;;;;;4989570;28;19913;-79
2023/03/05 03:54:51;;;;;;;;;;;2.80;1.00;;;;;;4978891;28;20314;-80
2023/03/05 03:57:18;;;;;;;;;;;2.70;1.00;;;;;;4986059;28;19909;-79
2023/03/05 03:59:44;;;;;;;;;;;2.80;1.00;;;;;;4996365;28;20271;-79
2023/03/05 04:02:11;;;;;;;;;;;2.80;1.00;;;;;;4983845;28;19929;-79
2023/03/05 04:04:37;;;;;;;;;;;2.80;1.00;;;;;;4987296;28;19914;-80
2023/03/05 04:07:03;;;;;;;;;;;2.80;1.00;;;;;;4976120;28;20404;-80
2023/03/05 04:09:29;;;;;;;;;;;2.80;1.00;;;;;;4985747;28;19957;-80
2023/03/05 04:11:55;;;;;;;;;;;2.80;1.00;;;;;;4981666;28;19924;-80
2023/03/05 04:14:21;;;;;;;;;;;2.80;1.00;;;;;;4979132;28;19918;-80
2023/03/05 04:16:47;;;;;;;;;;;2.80;1.00;;;;;;4999685;28;20001;-81
2023/03/05 04:19:14;;;;;;;;;;;2.80;1.00;;;;;;4981641;28;19913;-80
2023/03/05 04:21:40;;;;;;;;;;;2.80;1.00;;;;;;4995391;28;19914;-80
2023/03/05 04:24:07;;;;;;;;;;;2.80;1.00;;;;;;4979026;28;20580;-81
2023/03/05 04:26:33;;;;;;;;;;;2.80;1.00;;;;;;4981853;28;19922;-79
2023/03/05 04:28:59;;;;;;;;;;;2.80;1.00;;;;;;4977392;28;19918;-81
2023/03/05 04:31:25;;;;;;;;;;;2.80;1.00;;;;;;4989958;28;19918;-80
2023/03/05 04:33:51;;;;;;;;;;;2.80;1.00;;;;;;4992524;28;20286;-81
2023/03/05 04:36:17;;;;;;;;;;;2.80;1.00;;;;;;4985789;28;19914;-80
2023/03/05 04:38:43;;;;;;;;;;;2.80;1.00;;;;;;4984635;28;20295;-80
2023/03/05 04:41:10;;;;;;;;;;;2.70;1.00;;;;;;4982144;28;20274;-80
2023/03/05 04:43:36;;;;;;;;;;;2.70;1.00;;;;;;5006540;28;19921;-80
2023/03/05 04:46:03;;;;;;;;;;;2.60;1.00;;;;;;4982942;28;19924;-80
2023/03/05 04:48:29;;;;;;;;;;;2.70;1.00;;;;;;4979051;28;19914;-80
2023/03/05 04:50:56;;;;;;;;;;;2.60;1.00;;;;;;4978066;28;19917;-80
2023/03/05 04:53:22;;;;;;;;;;;2.60;1.00;;;;;;4977356;28;19913;-79
2023/03/05 04:55:55;;;;;;;;;;;2.60;1.00;;;;;;4999128;28;19921;-79
2023/03/05 04:58:21;;;;;;;;;;;2.60;1.00;;;;;;4980547;28;19941;-79
2023/03/05 05:00:48;;;;;;;;;;;2.60;1.00;;;;;;4973517;28;19918;-81
2023/03/05 05:03:14;;;;;;;;;;;2.60;1.00;;;;;;4981281;28;19921;-79
2023/03/05 05:05:40;;;;;;;;;;;2.60;1.00;;;;;;4970921;28;19933;-79
2023/03/05 05:08:06;;;;;;;;;;;2.60;1.00;;;;;;4983220;28;19914;-79
2023/03/05 05:10:32;;;;;;;;;;;2.60;1.00;;;;;;4967065;28;19914;-79
2023/03/05 05:12:59;;;;;;;;;;;2.50;1.00;;;;;;4984783;28;19921;-80
2023/03/05 05:15:25;;;;;;;;;;;2.50;1.00;;;;;;4979804;28;19913;-80
2023/03/05 05:17:51;;;;;;;;;;;2.50;1.00;;;;;;4994882;28;19914;-81
2023/03/05 05:20:17;;;;;;;;;;;2.50;1.00;;;;;;4987944;28;19916;-80
2023/03/05 05:22:44;;;;;;;;;;;2.50;1.00;;;;;;4996956;28;19922;-80
2023/03/05 05:25:10;;;;;;;;;;;2.50;1.00;;;;;;4984227;28;20379;-80
2023/03/05 05:27:37;;;;;;;;;;;2.50;1.00;;;;;;4991640;28;19910;-80
2023/03/05 05:30:04;;;;;;;;;;;2.50;1.00;;;;;;4996567;28;19925;-80
2023/03/05 05:32:30;;;;;;;;;;;2.50;1.00;;;;;;4993678;28;19921;-79
2023/03/05 05:34:56;;;;;;;;;;;2.50;1.00;;;;;;4972227;28;19913;-80
2023/03/05 05:37:23;;;;;;;;;;;2.50;1.00;;;;;;4977543;28;19921;-80
2023/03/05 05:39:49;;;;;;;;;;;2.50;1.00;;;;;;4977832;28;19917;-82
2023/03/05 05:42:16;;;;;;;;;;;2.50;1.00;;;;;;4985220;28;19920;-81
2023/03/05 05:44:42;;;;;;;;;;;2.50;1.00;;;;;;4996218;28;19986;-81
2023/03/05 05:47:09;;;;;;;;;;;2.50;1.00;;;;;;4984827;28;19914;-81
2023/03/05 05:49:35;;;;;;;;;;;2.50;1.00;;;;;;4977684;28;19910;-81
2023/03/05 05:52:01;;;;;;;;;;;2.50;1.00;;;;;;4976899;28;20390;-82
2023/03/05 05:54:27;;;;;;;;;;;2.50;1.00;;;;;;4995172;28;19922;-82
2023/03/05 05:56:53;;;;;;;;;;;2.60;1.00;;;;;;4992832;28;19917;-81
2023/03/05 05:59:19;;;;;;;;;;;2.60;1.00;;;;;;4996498;28;19914;-80
2023/03/05 06:01:45;;;;;;;;;;;2.60;1.00;;;;;;4982725;28;19921;-81
2023/03/05 06:04:12;;;;;;;;;;;2.60;1.00;;;;;;4963398;28;19933;-80
2023/03/05 06:06:38;;;;;;;;;;;2.70;1.00;;;;;;5009474;28;20319;-82
2023/03/05 06:09:04;;;;;;;;;;;2.80;1.00;;;;;;4996485;28;19921;-81
2023/03/05 06:11:31;;;;;;;;;;;2.80;1.00;;;;;;4980814;28;19914;-81
2023/03/05 06:13:57;;;;;;;;;;;2.80;1.00;;;;;;4982545;28;19914;-81
2023/03/05 06:16:23;;;;;;;;;;;2.80;1.00;;;;;;4986830;28;19920;-81
2023/03/05 06:18:50;;;;;;;;;;;2.80;1.00;;;;;;4993910;28;19920;-82
2023/03/05 06:21:16;;;;;;;;;;;2.80;1.00;;;;;;4973331;28;19918;-81
2023/03/05 06:23:43;;;;;;;;;;;2.80;1.00;;;;;;4989985;28;19926;-80
2023/03/05 06:26:11;;;;;;;;;;;2.80;1.00;;;;;;4987388;28;20359;-80
2023/03/05 06:28:37;;;;;;;;;;;2.80;1.00;;;;;;4998893;28;19914;-80
2023/03/05 06:31:08;;;;;;;;;;;2.80;1.00;;;;;;4984087;28;19918;-80
2023/03/05 06:33:34;;;;;;;;;;;2.70;1.00;;;;;;4988720;28;19913;-84
2023/03/05 06:36:05;;;;;;;;;;;2.70;1.00;;;;;;4980963;28;19920;-80
2023/03/05 06:38:31;;;;;;;;;;;2.80;1.00;;;;;;4996875;28;19960;-83
2023/03/05 06:41:01;;;;;;;;;;;2.80;1.00;;;;;;4986112;28;19921;-81
2023/03/05 06:43:27;;;;;;;;;;;2.80;1.00;;;;;;4963364;28;19937;-80
2023/03/05 06:46:25;;;;;;;;;;;2.80;1.00;;;;;;4984900;28;19914;-80
2023/03/05 06:48:55;;;;;;;;;;;2.80;1.00;;;;;;4920539;28;20287;-81
2023/03/05 06:51:23;;;;;;;;;;;2.90;1.00;;;;;;4985006;28;19921;-80
2023/03/05 06:53:50;;;;;;;;;;;2.80;1.00;;;;;;4992891;28;19920;-80
2023/03/05 06:56:17;;;;;;;;;;;2.80;1.00;;;;;;4990246;28;19918;-80
2023/03/05 06:58:44;;;;;;;;;;;2.90;1.00;;;;;;4984912;28;20385;-81
2023/03/05 07:01:10;;;;;;;;;;;2.90;1.00;;;;;;4997477;28;19918;-79
2023/03/05 07:03:37;;;;;;;;;;;2.90;1.00;;;;;;4977505;28;20295;-80
2023/03/05 07:06:04;;;;;;;;;;;2.90;1.00;;;;;;4998786;28;19914;-80
2023/03/05 07:08:31;;;;;;;;;;;2.90;1.00;;;;;;4980205;28;20358;-81
2023/03/05 07:10:57;;;;;;;;;;;2.90;1.00;;;;;;4995151;28;19914;-81
2023/03/05 07:13:23;;;;;;;;;;;3.00;1.00;;;;;;4994034;28;19914;-82
2023/03/05 07:15:49;;;;;;;;;;;3.00;1.00;;;;;;4994593;28;20282;-81
2023/03/05 07:18:15;;;;;;;;;;;3.10;1.00;;;;;;4972999;28;19910;-81
2023/03/05 07:20:46;;;;;;;;;;;3.10;1.00;;;;;;4979594;28;19914;-81
2023/03/05 07:23:12;;;;;;;;;;;3.20;1.00;;;;;;4994646;28;19925;-81
2023/03/05 07:25:38;;;;;;;;;;;3.30;1.00;;;;;;4970204;28;19922;-82
2023/03/05 07:28:05;;;;;;;;;;;3.50;1.00;;;;;;4987291;28;19917;-82
2023/03/05 07:30:34;;;;;;;;;;;3.60;1.00;;;;;;4996052;28;19917;-82
2023/03/05 07:33:01;;;;;;;;;;;3.70;1.00;;;;;;4973415;28;19918;-81
2023/03/05 07:35:27;;;;;;;;;;;3.70;1.00;;;;;;4994107;28;20385;-81
2023/03/05 07:37:54;;;;;;;;;;;3.80;1.00;;;;;;4992462;28;19921;-81
2023/03/05 07:40:21;;;;;;;;;;;3.90;1.00;;;;;;4996450;28;19917;-81
2023/03/05 07:42:47;;;;;;;;;;;4.00;1.00;;;;;;4992153;28;19922;-81
2023/03/05 07:45:22;;;;;;;;;;;4.00;1.00;;;;;;4991470;28;20286;-80
2023/03/05 07:47:48;;;;;;;;;;;4.10;1.00;;;;;;4993968;28;19936;-82
2023/03/05 07:50:15;;;;;;;;;;;4.10;1.00;;;;;;4986165;28;20004;-81
2023/03/05 07:52:41;;;;;;;;;;;4.20;1.00;;;;;;4984807;28;19914;-81
2023/03/05 07:55:07;;;;;;;;;;;4.30;1.00;;;;;;4997136;28;20025;-80
2023/03/05 07:57:34;;;;;;;;;;;4.30;1.00;;;;;;4969388;28;20259;-81
2023/03/05 08:00:00;;;;;;;;;;;4.30;1.00;;;;;;4992226;28;19918;-82
2023/03/05 08:02:27;;;;;;;;;;;4.40;1.00;;;;;;4991235;28;19922;-79
2023/03/05 08:04:53;;;;;;;;;;;4.60;1.00;;;;;;4983320;28;20367;-80
2023/03/05 08:07:21;;;;;;;;;;;4.70;1.00;;;;;;4990168;28;19921;-79
2023/03/05 08:09:47;;;;;;;;;;;4.70;1.00;;;;;;4982833;28;19925;-79
2023/03/05 08:12:13;;;;;;;;;;;4.80;1.00;;;;;;4989953;28;19914;-80
2023/03/05 08:14:40;;;;;;;;;;;4.90;1.00;;;;;;4999393;28;19913;-79
2023/03/05 08:17:09;;;;;;;;;;;4.90;1.00;;;;;;4978080;28;19909;-80
2023/03/05 08:19:35;;;;;;;;;;;4.90;99.90;;;;;;4987854;28;19913;-78
2023/03/05 08:22:03;;;;;;;;;;;4.90;99.90;;;;;;4990278;28;20017;-76
2023/03/05 08:24:29;;;;;;;;;;;4.90;99.90;;;;;;4938116;29;20427;-76
2023/03/05 08:26:56;;;;;;;;;;;4.90;99.90;;;;;;4914281;29;20399;-79
2023/03/05 08:29:23;;;;;;;;;;;5.00;99.90;;;;;;4945471;29;19924;-74
2023/03/05 08:31:52;;;;;;;;;;;5.00;99.90;;;;;;4950579;29;19915;-76
2023/03/05 08:34:22;;;;;;;;;;;5.10;99.90;;;;;;4948507;28;19922;-79
2023/03/05 08:36:48;;;;;;;;;;;5.10;99.90;;;;;;4940261;29;19919;-80
2023/03/05 08:39:14;;;;;;;;;;;5.10;99.90;;;;;;4937681;29;20303;-79
2023/03/05 08:41:40;;;;;;;;;;;5.10;99.90;;;;;;4934810;28;19918;-78
2023/03/05 08:44:06;;;;;;;;;;;5.10;99.90;;;;;;4939971;29;19925;-83
2023/03/05 08:46:36;;;;;;;;;;;5.20;99.90;;;;;;4939474;28;19919;-78
2023/03/05 08:49:02;;;;;;;;;;;5.20;99.90;;;;;;4937415;29;19914;-82
2023/03/05 08:51:29;;;;;;;;;;;5.30;99.90;;;;;;4937680;29;20423;-77
2023/03/05 08:53:57;;;;;;;;;;;5.40;99.90;;;;;;4945899;29;19990;-79
2023/03/05 08:56:27;;;;;;;;;;;5.40;99.90;;;;;;4986766;28;20291;-77
2023/03/05 08:58:54;;;;;;;;;;;5.20;99.90;;;;;;4983128;28;19921;-81
2023/03/05 09:01:23;;;;;;;;;;;5.30;99.90;;;;;;4979905;28;19917;-80
2023/03/05 09:03:50;;;;;;;;;;;5.50;99.90;;;;;;4976900;28;19928;-79
2023/03/05 09:06:16;;;;;;;;;;;5.40;99.90;;;;;;4991249;28;20079;-78
2023/03/05 09:08:44;;;;;;;;;;;5.30;99.90;;;;;;4976946;28;19920;-77
2023/03/05 09:11:12;;;;;;;;;;;5.50;99.90;;;;;;4986706;28;19914;-79
2023/03/05 09:13:39;;;;;;;;;;;5.50;99.90;;;;;;4984770;28;19917;-79
2023/03/05 09:16:07;;;;;;;;;;;5.50;99.90;;;;;;5000169;28;19921;-79
2023/03/05 09:18:35;;;;;;;;;;;5.30;99.90;;;;;;4994563;28;19913;-80
2023/03/05 09:21:08;;;;;;;;;;;5.40;99.90;;;;;;4988735;28;19947;-81
2023/03/05 09:23:36;;;;;;;;;;;5.40;99.90;;;;;;5005248;28;19925;-79
2023/03/05 09:26:05;;;;;;;;;;;5.70;99.90;;;;;;4987641;28;19917;-79
2023/03/05 09:28:33;;;;;;;;;;;5.70;99.90;;;;;;4992760;28;19914;-78
2023/03/05 09:31:01;;;;;;;;;;;5.60;99.90;;;;;;4997103;28;19913;-79
2023/03/05 09:33:29;;;;;;;;;;;5.70;99.90;;;;;;4985088;28;19936;-79
2023/03/05 09:35:55;;;;;;;;;;;5.80;99.90;;;;;;4960845;28;19914;-78
2023/03/05 09:38:22;;;;;;;;;;;5.80;99.90;;;;;;4964471;28;19937;-78
2023/03/05 09:40:48;;;;;;;;;;;5.80;99.90;;;;;;4930737;28;19910;-79
2023/03/05 09:43:17;;;;;;;;;;;5.80;99.90;;;;;;4952748;28;19918;-78
2023/03/05 09:45:58;;;;;;;;;;;5.80;99.90;;;;;;4938117;28;19922;-77
2023/03/05 09:48:39;;;;;;;;;;;5.80;99.90;;;;;;4935129;28;19914;-78
2023/03/05 09:51:11;;;;;;;;;;;5.70;99.90;;;;;;4947558;28;19922;-80
2023/03/05 09:53:50;;;;;;;;;;;5.90;99.90;;;;;;4967783;28;19914;-79
2023/03/05 09:56:22;;;;;;;;;;;5.90;99.90;;;;;;4927100;28;20375;-80
2023/03/05 09:58:53;;;;;;;;;;;6.00;99.90;;;;;;4949448;28;20395;-81
2023/03/05 10:01:21;;;;;;;;;;;5.90;99.90;;;;;;4945690;29;19994;-80
2023/03/05 10:03:58;;;;;;;;;;;5.90;99.90;;;;;;4931906;28;19937;-80
2023/03/05 10:06:33;;;;;;;;;;;6.00;99.90;;;;;;4974251;28;20371;-81
2023/03/05 10:09:19;;;;;;;;;;;6.10;99.90;;;;;;5006774;28;19913;-82
2023/03/05 10:11:48;;;;;;;;;;;6.20;99.90;;;;;;4992680;28;19936;-80
2023/03/05 10:14:21;;;;;;;;;;;6.20;99.90;;;;;;4976624;28;19916;-78
2023/03/05 10:16:50;;;;;;;;;;;6.30;99.90;;;;;;4971456;28;19918;-80
2023/03/05 10:19:36;;;;;;;;;;;5.90;99.90;;;;;;4978538;28;19910;-80
2023/03/05 10:22:13;;;;;;;;;;;6.10;99.90;;;;;;4977514;28;19936;-81
2023/03/05 10:24:39;;;;;;;;;;;6.30;99.90;;;;;;4971045;28;19918;-81
2023/03/05 10:27:19;;;;;;;;;;;6.50;99.90;;;;;;4995509;28;19918;-82
2023/03/05 10:29:51;;;;;;;;;;;6.40;99.90;;;;;;4985455;28;19925;-80
2023/03/05 10:32:26;;;;;;;;;;;6.30;99.90;;;;;;4996690;28;19918;-80
2023/03/05 10:34:52;;;;;;;;;;;6.30;99.90;;;;;;4985191;28;19914;-80
2023/03/05 10:37:21;;;;;;;;;;;6.40;99.90;;;;;;4969031;28;20383;-78
2023/03/05 10:39:53;;;;;;;;;;;6.30;99.90;;;;;;4981468;28;19936;-79
2023/03/05 10:42:42;;;;;;;;;;;6.40;99.90;;;;;;4983859;28;20291;-80
2023/03/05 10:45:13;;;;;;;;;;;6.50;99.90;;;;;;4960862;28;19921;-79
2023/03/05 10:47:49;;;;;;;;;;;6.60;99.90;;;;;;4989159;28;19913;-79
2023/03/05 10:50:19;;;;;;;;;;;6.60;99.90;;;;;;4977296;28;19924;-79
2023/03/05 10:52:49;;;;;;;;;;;6.70;99.90;;;;;;4976203;28;19921;-79
2023/03/05 10:55:20;;;;;;;;;;;6.70;99.90;;;;;;4996060;28;19913;-79
2023/03/05 10:57:47;;;;;;;;;;;6.60;99.90;;;;;;4986420;28;20321;-81
2023/03/05 11:00:17;;;;;;;;;;;6.40;99.90;;;;;;4995529;28;19921;-77
2023/03/05 11:02:52;;;;;;;;;;;6.50;99.90;;;;;;4992170;28;19914;-75
2023/03/05 11:05:35;;;;;;;;;;;6.20;99.90;;;;;;4968879;28;19928;-75
2023/03/05 11:08:16;;;;;;;;;;;6.30;99.90;;;;;;4995022;28;19964;-77
2023/03/05 11:10:43;;;;;;;;;;;6.30;99.90;;;;;;4995239;28;19914;-77
2023/03/05 11:13:26;;;;;;;;;;;6.20;99.90;;;;;;4970529;28;20359;-77
2023/03/05 11:15:59;;;;;;;;;;;6.20;99.90;;;;;;4981082;28;19914;-77
2023/03/05 11:18:25;;;;;;;;;;;6.20;99.90;;;;;;4980876;28;19920;-77
2023/03/05 11:20:51;;;;;;;;;;;6.40;99.90;;;;;;4972462;28;19921;-77
2023/03/05 11:23:18;;;;;;;;;;;6.40;99.90;;;;;;4990778;28;19914;-78
2023/03/05 11:25:50;;;;;;;;;;;6.60;99.90;;;;;;4987061;28;19949;-78
2023/03/05 11:28:20;;;;;;;;;;;6.60;99.90;;;;;;4975082;28;19924;-77
2023/03/05 11:30:54;;;;;;;;;;;6.50;99.90;;;;;;5009248;28;19928;-78
2023/03/05 11:33:22;;;;;;;;;;;6.50;99.90;;;;;;4990493;28;20020;-77
2023/03/05 11:35:49;;;;;;;;;;;6.60;99.90;;;;;;4979115;28;19914;-78
2023/03/05 11:38:17;;;;;;;;;;;6.70;99.90;;;;;;4975540;28;19913;-78
2023/03/05 11:40:43;;;;;;;;;;;6.70;99.90;;;;;;4993349;28;19928;-77
2023/03/05 11:43:14;;;;;;;;;;;6.60;99.90;;;;;;4987334;28;19914;-77
2023/03/05 11:45:41;;;;;;;;;;;6.40;99.90;;;;;;4993012;28;19918;-77
2023/03/05 11:48:10;;;;;;;;;;;6.40;99.90;;;;;;4986127;28;19918;-79
2023/03/05 11:50:39;;;;;;;;;;;6.60;99.90;;;;;;4983071;28;19941;-78
2023/03/05 11:53:08;;;;;;;;;;;6.50;99.90;;;;;;4974181;28;19914;-79
2023/03/05 11:55:44;;;;;;;;;;;6.40;99.90;;;;;;5014919;28;20363;-79
2023/03/05 11:58:29;;;;;;;;;;;6.60;99.90;;;;;;4989895;28;19921;-78
2023/03/05 12:00:55;;;;;;;;;;;6.80;99.90;;;;;;5005351;28;20378;-79
2023/03/05 12:03:25;;;;;;;;;;;6.90;99.90;;;;;;5006751;28;19913;-79
2023/03/05 12:06:01;;;;;;;;;;;6.80;99.90;;;;;;4993989;28;19921;-78
2023/03/05 12:08:30;;;;;;;;;;;6.50;99.90;;;;;;4995572;28;19913;-78
2023/03/05 12:10:58;;;;;;;;;;;6.40;99.90;;;;;;5000220;28;19917;-78
2023/03/05 12:13:37;;;;;;;;;;;6.40;99.90;;;;;;5006432;28;19924;-77
2023/03/05 12:16:07;;;;;;;;;;;6.40;99.90;;;;;;5000061;28;19929;-78
2023/03/05 12:18:51;;;;;;;;;;;6.30;99.90;;;;;;4987689;28;19913;-78
2023/03/05 12:21:24;;;;;;;;;;;6.20;99.90;;;;;;4984651;28;19928;-77
2023/03/05 12:23:52;;;;;;;;;;;6.10;99.90;;;;;;4974327;28;19917;-76
2023/03/05 12:26:39;;;;;;;;;;;6.10;99.90;;;;;;4980077;28;19917;-76
2023/03/05 12:29:25;;;;;;;;;;;6.10;99.90;;;;;;4990700;28;20393;-75
2023/03/05 12:31:51;;;;;;;;;;;6.10;99.90;;;;;;4992698;28;19914;-76
2023/03/05 12:34:38;;;;;;;;;;;6.20;99.90;;;;;;5006470;28;20259;-75
2023/03/05 12:37:09;;;;;;;;;;;6.10;99.90;;;;;;4981912;28;20251;-75
2023/03/05 12:39:49;;;;;;;;;;;6.00;99.90;;;;;;4992339;28;20390;-77
2023/03/05 12:42:28;;;;;;;;;;;6.00;99.90;;;;;;4976747;28;20353;-76
2023/03/05 12:45:29;;;;;;;;;;;6.00;99.90;;;;;;4993463;28;20390;-75
2023/03/05 12:47:55;;;;;;;;;;;5.90;99.90;;;;;;4912719;29;20452;-76
2023/03/05 12:50:27;;;;;;;;;;;6.00;99.90;;;;;;4900112;29;20416;-76
2023/03/05 12:52:54;;;;;;;;;;;6.10;99.90;;;;;;4932360;29;19915;-77
2023/03/05 12:55:39;;;;;;;;;;;6.00;99.90;;;;;;4916775;29;19915;-76
2023/03/05 12:58:24;;;;;;;;;;;6.10;99.90;;;;;;4915701;29;19919;-76
2023/03/05 13:01:13;;;;;;;;;;;6.00;99.90;;;;;;4931039;29;19919;-77
2023/03/05 13:03:43;;;;;;;;;;;5.90;99.90;;;;;;4898198;29;20377;-75
2023/03/05 13:06:23;;;;;;;;;;;6.00;99.90;;;;;;4932321;29;20325;-77
2023/03/05 13:09:15;;;;;;;;;;;5.90;99.90;;;;;;4917139;29;19915;-77
2023/03/05 13:11:43;;;;;;;;;;;6.00;99.90;;;;;;4897597;29;19915;-80
2023/03/05 13:14:30;;;;;;;;;;;6.00;99.90;;;;;;4916833;29;19938;-82
2023/03/05 13:16:57;;;;;;;;;;;6.00;99.90;;;;;;4897674;29;20066;-78
2023/03/05 13:19:24;;;;;;;;;;;6.00;99.90;;;;;;4896471;29;20421;-78
2023/03/05 13:21:57;;;;;;;;;;;6.00;99.90;;;;;;4911780;28;19922;-77
2023/03/05 13:24:23;;;;;;;;;;;6.00;99.90;;;;;;4954289;28;19945;-77
2023/03/05 13:26:50;;;;;;;;;;;6.00;99.90;;;;;;4958530;28;19922;-77
2023/03/05 13:29:26;;;;;;;;;;;6.00;99.90;;;;;;4950515;28;19914;-78
2023/03/05 13:32:15;;;;;;;;;;;5.90;99.90;;;;;;4955409;28;19930;-77
2023/03/05 13:34:46;;;;;;;;;;;5.80;99.90;;;;;;4951770;28;19922;-78
2023/03/05 13:37:18;;;;;;;;;;;6.00;99.90;;;;;;4946576;29;19919;-78
2023/03/05 13:39:47;;;;;;;;;;;6.00;99.90;;;;;;4967842;28;20414;-76
2023/03/05 13:42:16;;;;;;;;;;;5.90;99.90;;;;;;4984366;28;20339;-78
2023/03/05 13:44:52;;;;;;;;;;;6.00;99.90;;;;;;4984369;28;19925;-77
2023/03/05 13:47:20;;;;;;;;;;;6.00;99.90;;;;;;4976626;28;20378;-77
2023/03/05 13:49:54;;;;;;;;;;;6.00;99.90;;;;;;4982757;28;19918;-77
2023/03/05 13:52:25;;;;;;;;;;;5.70;99.90;;;;;;4972747;28;19924;-77
2023/03/05 13:54:55;;;;;;;;;;;5.70;99.90;;;;;;4984133;28;19920;-77
2023/03/05 13:57:40;;;;;;;;;;;5.80;99.90;;;;;;4997145;28;19937;-78
2023/03/05 14:00:25;;;;;;;;;;;5.90;99.90;;;;;;4998646;28;19918;-77
2023/03/05 14:02:52;;;;;;;;;;;6.00;99.90;;;;;;4935620;28;19914;-77
2023/03/05 14:05:18;;;;;;;;;;;6.00;99.90;;;;;;4973593;28;20031;-78
2023/03/05 14:07:48;;;;;;;;;;;5.90;99.90;;;;;;4996597;28;19929;-78
2023/03/05 14:10:28;;;;;;;;;;;5.90;99.90;;;;;;5009718;28;19917;-78
2023/03/05 14:12:55;;;;;;;;;;;5.90;99.90;;;;;;4994551;28;19913;-79
2023/03/05 14:15:23;;;;;;;;;;;5.90;99.90;;;;;;4993053;28;19913;-77
2023/03/05 14:17:49;;;;;;;;;;;5.90;99.90;;;;;;4984887;28;19909;-78
2023/03/05 14:20:23;;;;;;;;;;;5.80;99.90;;;;;;4972093;28;20267;-78
2023/03/05 14:22:52;;;;;;;;;;;5.80;99.90;;;;;;4989919;28;19921;-78
2023/03/05 14:25:50;;;;;;;;;;;5.80;99.90;;;;;;4972557;28;19925;-78
2023/03/05 14:28:17;;;;;;;;;;;5.80;99.90;;;;;;4863904;29;20350;-77
2023/03/05 14:30:50;;;;;;;;;;;5.70;99.90;;;;;;4823570;29;20389;-78
2023/03/05 14:33:27;;;;;;;;;;;5.50;99.90;;;;;;4810685;29;19924;-77
2023/03/05 14:35:57;;;;;;;;;;;5.60;99.90;;;;;;4826997;29;19917;-79
2023/03/05 14:38:29;;;;;;;;;;;5.60;99.90;;;;;;4808572;29;19936;-78
2023/03/05 14:40:56;;;;;;;;;;;5.60;99.90;;;;;;4819158;29;19925;-79
2023/03/05 14:43:22;;;;;;;;;;;5.60;99.90;;;;;;4803089;29;19917;-78
2023/03/05 14:45:49;;;;;;;;;;;5.40;99.90;;;;;;4813370;29;19931;-78
2023/03/05 14:48:16;;;;;;;;;;;5.40;99.90;;;;;;4816259;29;20011;-79
2023/03/05 14:50:57;;;;;;;;;;;5.40;99.90;;;;;;4812376;29;20268;-79